Cardenal Cagliero, Argentina
Current Conditions -  °F | °C
As of 10:00 AM on Friday 19 Dec 2014 (Local Time) from SAZN Reporting Station
Clear Clear  
Wind Chill: 75°   Ceiling: Unl
Heat Index: 75°   Visibility: 6mi
Dew Point: 37°   Wind: 13mph
Humidity: 25%   Direction: 270°W
Pressure: 29.59"   Gusts: 32mph
Location:  40.65°S, 62.75°W
Report Text: SAZN 191300Z 27011G28KT CAVOK 24/03 Q1002
Loading
Personal Weather Stations






























Interactive Weather Map New forecast layout! Learn more

10-Day Weather Forecast

Advertisements
Track Severe Weather on mobile